sensor_id;sensor_type;location;lat;lon;timestamp;temperature;humidity
10431;DHT22;5262;59.958;17.726;2024-01-07T00:01:19;-16.40;99.90
10431;DHT22;5262;59.958;17.726;2024-01-07T00:03:45;-16.40;99.90
10431;DHT22;5262;59.958;17.726;2024-01-07T00:06:11;-16.40;99.90
10431;DHT22;5262;59.958;17.726;2024-01-07T00:08:37;-16.40;99.90
10431;DHT22;5262;59.958;17.726;2024-01-07T00:11:02;-16.40;99.90
10431;DHT22;5262;59.958;17.726;2024-01-07T00:13:28;-16.40;99.90
10431;DHT22;5262;59.958;17.726;2024-01-07T00:15:53;-16.40;99.90
10431;DHT22;5262;59.958;17.726;2024-01-07T00:18:21;-16.40;99.90
10431;DHT22;5262;59.958;17.726;2024-01-07T00:20:47;-16.50;99.90
10431;DHT22;5262;59.958;17.726;2024-01-07T00:23:13;-16.50;99.90
10431;DHT22;5262;59.958;17.726;2024-01-07T00:25:38;-16.50;99.90
10431;DHT22;5262;59.958;17.726;2024-01-07T00:28:04;-16.60;99.90
10431;DHT22;5262;59.958;17.726;2024-01-07T00:30:30;-16.60;99.90
10431;DHT22;5262;59.958;17.726;2024-01-07T00:32:56;-16.60;99.90
10431;DHT22;5262;59.958;17.726;2024-01-07T00:35:21;-16.70;99.90
10431;DHT22;5262;59.958;17.726;2024-01-07T00:37:47;-16.70;99.90
10431;DHT22;5262;59.958;17.726;2024-01-07T00:40:12;-16.80;99.90
10431;DHT22;5262;59.958;17.726;2024-01-07T00:42:38;-16.80;99.90
10431;DHT22;5262;59.958;17.726;2024-01-07T00:45:04;-16.80;99.90
10431;DHT22;5262;59.958;17.726;2024-01-07T00:47:30;-16.90;99.90
10431;DHT22;5262;59.958;17.726;2024-01-07T00:49:55;-16.90;99.90
10431;DHT22;5262;59.958;17.726;2024-01-07T00:52:21;-16.90;99.90
10431;DHT22;5262;59.958;17.726;2024-01-07T00:54:48;-17.00;99.90
10431;DHT22;5262;59.958;17.726;2024-01-07T00:57:14;-17.00;99.90
10431;DHT22;5262;59.958;17.726;2024-01-07T00:59:40;-17.00;99.90
10431;DHT22;5262;59.958;17.726;2024-01-07T01:02:05;-17.00;99.90
10431;DHT22;5262;59.958;17.726;2024-01-07T01:04:31;-17.10;99.90
10431;DHT22;5262;59.958;17.726;2024-01-07T01:06:56;-17.10;99.90
10431;DHT22;5262;59.958;17.726;2024-01-07T01:09:22;-17.10;99.90
10431;DHT22;5262;59.958;17.726;2024-01-07T01:11:48;-17.10;99.90
10431;DHT22;5262;59.958;17.726;2024-01-07T01:14:15;-17.20;99.90
10431;DHT22;5262;59.958;17.726;2024-01-07T01:16:41;-17.20;99.90
10431;DHT22;5262;59.958;17.726;2024-01-07T01:19:06;-17.20;99.90
10431;DHT22;5262;59.958;17.726;2024-01-07T01:21:32;-17.20;99.90
10431;DHT22;5262;59.958;17.726;2024-01-07T01:23:58;-17.20;99.90
10431;DHT22;5262;59.958;17.726;2024-01-07T01:26:24;-17.20;99.90
10431;DHT22;5262;59.958;17.726;2024-01-07T01:28:49;-17.20;99.90
10431;DHT22;5262;59.958;17.726;2024-01-07T01:31:15;-17.20;99.90
10431;DHT22;5262;59.958;17.726;2024-01-07T01:33:41;-17.30;99.90
10431;DHT22;5262;59.958;17.726;2024-01-07T01:36:07;-17.30;99.90
10431;DHT22;5262;59.958;17.726;2024-01-07T01:38:33;-17.30;99.90
10431;DHT22;5262;59.958;17.726;2024-01-07T01:40:59;-17.30;99.90
10431;DHT22;5262;59.958;17.726;2024-01-07T01:43:25;-17.30;99.90
10431;DHT22;5262;59.958;17.726;2024-01-07T01:45:53;-17.40;99.90
10431;DHT22;5262;59.958;17.726;2024-01-07T01:48:18;-17.40;99.90
10431;DHT22;5262;59.958;17.726;2024-01-07T01:50:44;-17.40;99.90
10431;DHT22;5262;59.958;17.726;2024-01-07T01:53:10;-17.40;99.90
10431;DHT22;5262;59.958;17.726;2024-01-07T01:55:36;-17.50;99.90
10431;DHT22;5262;59.958;17.726;2024-01-07T01:58:03;-17.50;99.90
10431;DHT22;5262;59.958;17.726;2024-01-07T02:00:30;-17.50;99.90
10431;DHT22;5262;59.958;17.726;2024-01-07T02:02:56;-17.50;99.90
10431;DHT22;5262;59.958;17.726;2024-01-07T02:05:21;-17.60;99.90
10431;DHT22;5262;59.958;17.726;2024-01-07T02:07:47;-17.60;99.90
10431;DHT22;5262;59.958;17.726;2024-01-07T02:10:13;-17.60;99.90
10431;DHT22;5262;59.958;17.726;2024-01-07T02:12:39;-17.60;99.90
10431;DHT22;5262;59.958;17.726;2024-01-07T02:15:05;-17.60;99.90
10431;DHT22;5262;59.958;17.726;2024-01-07T02:17:31;-17.60;99.90
10431;DHT22;5262;59.958;17.726;2024-01-07T02:19:57;-17.60;99.90
10431;DHT22;5262;59.958;17.726;2024-01-07T02:22:22;-17.60;99.90
10431;DHT22;5262;59.958;17.726;2024-01-07T02:24:48;-17.60;99.90
10431;DHT22;5262;59.958;17.726;2024-01-07T02:27:13;-17.60;99.90
10431;DHT22;5262;59.958;17.726;2024-01-07T02:29:39;-17.60;99.90
10431;DHT22;5262;59.958;17.726;2024-01-07T02:32:05;-17.50;99.90
10431;DHT22;5262;59.958;17.726;2024-01-07T02:34:31;-17.50;99.90
10431;DHT22;5262;59.958;17.726;2024-01-07T02:36:56;-17.50;99.90
10431;DHT22;5262;59.958;17.726;2024-01-07T02:39:22;-17.50;99.90
10431;DHT22;5262;59.958;17.726;2024-01-07T02:41:48;-17.40;99.90
10431;DHT22;5262;59.958;17.726;2024-01-07T02:44:14;-17.40;99.90
10431;DHT22;5262;59.958;17.726;2024-01-07T02:46:39;-17.40;99.90
10431;DHT22;5262;59.958;17.726;2024-01-07T02:49:05;-17.30;99.90
10431;DHT22;5262;59.958;17.726;2024-01-07T02:51:31;-17.30;99.90
10431;DHT22;5262;59.958;17.726;2024-01-07T02:53:56;-17.20;99.90
10431;DHT22;5262;59.958;17.726;2024-01-07T02:56:22;-17.20;99.90
10431;DHT22;5262;59.958;17.726;2024-01-07T02:58:47;-17.20;99.90
10431;DHT22;5262;59.958;17.726;2024-01-07T03:01:13;-17.20;99.90
10431;DHT22;5262;59.958;17.726;2024-01-07T03:03:39;-17.20;99.90
10431;DHT22;5262;59.958;17.726;2024-01-07T03:06:04;-17.20;99.90
10431;DHT22;5262;59.958;17.726;2024-01-07T03:08:30;-17.20;99.90
10431;DHT22;5262;59.958;17.726;2024-01-07T03:10:56;-17.20;99.90
10431;DHT22;5262;59.958;17.726;2024-01-07T03:13:22;-17.20;99.90
10431;DHT22;5262;59.958;17.726;2024-01-07T03:15:48;-17.20;99.90
10431;DHT22;5262;59.958;17.726;2024-01-07T03:18:13;-17.20;99.90
10431;DHT22;5262;59.958;17.726;2024-01-07T03:20:39;-17.20;99.90
10431;DHT22;5262;59.958;17.726;2024-01-07T03:23:04;-17.20;99.90
10431;DHT22;5262;59.958;17.726;2024-01-07T03:25:30;-17.30;99.90
10431;DHT22;5262;59.958;17.726;2024-01-07T03:27:56;-17.30;99.90
10431;DHT22;5262;59.958;17.726;2024-01-07T03:30:21;-17.30;99.90
10431;DHT22;5262;59.958;17.726;2024-01-07T03:32:47;-17.30;99.90
10431;DHT22;5262;59.958;17.726;2024-01-07T03:35:12;-17.30;99.90
10431;DHT22;5262;59.958;17.726;2024-01-07T03:37:38;-17.30;99.90
10431;DHT22;5262;59.958;17.726;2024-01-07T03:40:10;-17.30;99.90
10431;DHT22;5262;59.958;17.726;2024-01-07T03:42:36;-17.30;99.90
10431;DHT22;5262;59.958;17.726;2024-01-07T03:45:01;-17.30;99.90
10431;DHT22;5262;59.958;17.726;2024-01-07T03:47:27;-17.30;99.90
10431;DHT22;5262;59.958;17.726;2024-01-07T03:49:52;-17.30;99.90
10431;DHT22;5262;59.958;17.726;2024-01-07T03:52:18;-17.30;99.90
10431;DHT22;5262;59.958;17.726;2024-01-07T03:54:44;-17.30;99.90
10431;DHT22;5262;59.958;17.726;2024-01-07T03:57:09;-17.30;99.90
10431;DHT22;5262;59.958;17.726;2024-01-07T03:59:35;-17.30;99.90
10431;DHT22;5262;59.958;17.726;2024-01-07T04:02:01;-17.30;99.90
10431;DHT22;5262;59.958;17.726;2024-01-07T04:04:27;-17.30;99.90
10431;DHT22;5262;59.958;17.726;2024-01-07T04:06:53;-17.30;99.90
10431;DHT22;5262;59.958;17.726;2024-01-07T04:09:19;-17.30;99.90
10431;DHT22;5262;59.958;17.726;2024-01-07T04:11:44;-17.30;99.90
10431;DHT22;5262;59.958;17.726;2024-01-07T04:14:10;-17.30;99.90
10431;DHT22;5262;59.958;17.726;2024-01-07T04:16:35;-17.30;99.90
10431;DHT22;5262;59.958;17.726;2024-01-07T04:19:01;-17.30;99.90
10431;DHT22;5262;59.958;17.726;2024-01-07T04:21:27;-17.30;99.90
10431;DHT22;5262;59.958;17.726;2024-01-07T04:23:52;-17.40;99.90
10431;DHT22;5262;59.958;17.726;2024-01-07T04:26:18;-17.40;99.90
10431;DHT22;5262;59.958;17.726;2024-01-07T04:28:44;-17.40;99.90
10431;DHT22;5262;59.958;17.726;2024-01-07T04:31:09;-17.40;99.90
10431;DHT22;5262;59.958;17.726;2024-01-07T04:33:35;-17.40;99.90
10431;DHT22;5262;59.958;17.726;2024-01-07T04:36:01;-17.40;99.90
10431;DHT22;5262;59.958;17.726;2024-01-07T04:38:27;-17.40;99.90
10431;DHT22;5262;59.958;17.726;2024-01-07T04:40:52;-17.40;99.90
10431;DHT22;5262;59.958;17.726;2024-01-07T04:43:19;-17.40;99.90
10431;DHT22;5262;59.958;17.726;2024-01-07T04:45:45;-17.40;99.90
10431;DHT22;5262;59.958;17.726;2024-01-07T04:48:10;-17.40;99.90
10431;DHT22;5262;59.958;17.726;2024-01-07T04:50:36;-17.50;99.90
10431;DHT22;5262;59.958;17.726;2024-01-07T04:53:02;-17.50;99.90
10431;DHT22;5262;59.958;17.726;2024-01-07T04:55:29;-17.50;99.90
10431;DHT22;5262;59.958;17.726;2024-01-07T04:57:55;-17.50;99.90
10431;DHT22;5262;59.958;17.726;2024-01-07T05:00:20;-17.50;99.90
10431;DHT22;5262;59.958;17.726;2024-01-07T05:02:46;-17.50;99.90
10431;DHT22;5262;59.958;17.726;2024-01-07T05:05:12;-17.50;99.90
10431;DHT22;5262;59.958;17.726;2024-01-07T05:07:38;-17.40;99.90
10431;DHT22;5262;59.958;17.726;2024-01-07T05:10:04;-17.40;99.90
10431;DHT22;5262;59.958;17.726;2024-01-07T05:12:30;-17.40;99.90
10431;DHT22;5262;59.958;17.726;2024-01-07T05:14:56;-17.40;99.90
10431;DHT22;5262;59.958;17.726;2024-01-07T05:17:21;-17.40;99.90
10431;DHT22;5262;59.958;17.726;2024-01-07T05:19:47;-17.30;99.90
10431;DHT22;5262;59.958;17.726;2024-01-07T05:22:12;-17.30;99.90
10431;DHT22;5262;59.958;17.726;2024-01-07T05:24:38;-17.20;99.90
10431;DHT22;5262;59.958;17.726;2024-01-07T05:27:04;-17.10;99.90
10431;DHT22;5262;59.958;17.726;2024-01-07T05:29:31;-17.00;99.90
10431;DHT22;5262;59.958;17.726;2024-01-07T05:31:59;-16.90;99.90
10431;DHT22;5262;59.958;17.726;2024-01-07T05:34:26;-16.80;99.90
10431;DHT22;5262;59.958;17.726;2024-01-07T05:36:52;-16.60;99.90
10431;DHT22;5262;59.958;17.726;2024-01-07T05:39:17;-16.60;99.90
10431;DHT22;5262;59.958;17.726;2024-01-07T05:41:43;-16.50;99.90
10431;DHT22;5262;59.958;17.726;2024-01-07T05:44:09;-16.50;99.90
10431;DHT22;5262;59.958;17.726;2024-01-07T05:46:38;-16.40;99.90
10431;DHT22;5262;59.958;17.726;2024-01-07T05:49:05;-16.50;99.90
10431;DHT22;5262;59.958;17.726;2024-01-07T05:51:30;-16.40;99.90
10431;DHT22;5262;59.958;17.726;2024-01-07T05:53:56;-16.50;99.90
10431;DHT22;5262;59.958;17.726;2024-01-07T05:56:22;-16.50;99.90
10431;DHT22;5262;59.958;17.726;2024-01-07T05:58:47;-16.60;99.90
10431;DHT22;5262;59.958;17.726;2024-01-07T06:01:21;-16.70;99.90
10431;DHT22;5262;59.958;17.726;2024-01-07T06:03:47;-16.70;99.90
10431;DHT22;5262;59.958;17.726;2024-01-07T06:06:14;-16.70;99.90
10431;DHT22;5262;59.958;17.726;2024-01-07T06:08:41;-16.80;99.90
10431;DHT22;5262;59.958;17.726;2024-01-07T06:11:07;-16.80;99.90
10431;DHT22;5262;59.958;17.726;2024-01-07T06:13:33;-16.90;99.90
10431;DHT22;5262;59.958;17.726;2024-01-07T06:15:59;-16.90;99.90
10431;DHT22;5262;59.958;17.726;2024-01-07T06:18:25;-16.80;99.90
10431;DHT22;5262;59.958;17.726;2024-01-07T06:20:50;-16.70;99.90
10431;DHT22;5262;59.958;17.726;2024-01-07T06:23:16;-16.70;99.90
10431;DHT22;5262;59.958;17.726;2024-01-07T06:25:41;-16.70;99.90
10431;DHT22;5262;59.958;17.726;2024-01-07T06:28:08;-16.60;99.90
10431;DHT22;5262;59.958;17.726;2024-01-07T06:30:33;-16.50;99.90
10431;DHT22;5262;59.958;17.726;2024-01-07T06:32:59;-16.50;99.90
10431;DHT22;5262;59.958;17.726;2024-01-07T06:35:25;-16.50;99.90
10431;DHT22;5262;59.958;17.726;2024-01-07T06:37:51;-16.50;99.90
10431;DHT22;5262;59.958;17.726;2024-01-07T06:40:16;-16.60;99.90
10431;DHT22;5262;59.958;17.726;2024-01-07T06:42:42;-16.70;99.90
10431;DHT22;5262;59.958;17.726;2024-01-07T06:45:09;-16.80;99.90
10431;DHT22;5262;59.958;17.726;2024-01-07T06:47:35;-16.80;99.90
10431;DHT22;5262;59.958;17.726;2024-01-07T06:50:00;-16.80;99.90
10431;DHT22;5262;59.958;17.726;2024-01-07T06:52:26;-16.90;99.90
10431;DHT22;5262;59.958;17.726;2024-01-07T06:54:51;-17.00;99.90
10431;DHT22;5262;59.958;17.726;2024-01-07T06:57:17;-17.10;99.90
10431;DHT22;5262;59.958;17.726;2024-01-07T06:59:43;-17.10;99.90
10431;DHT22;5262;59.958;17.726;2024-01-07T07:02:08;-17.20;99.90
10431;DHT22;5262;59.958;17.726;2024-01-07T07:04:34;-17.30;99.90
10431;DHT22;5262;59.958;17.726;2024-01-07T07:06:59;-17.30;99.90
10431;DHT22;5262;59.958;17.726;2024-01-07T07:09:25;-17.40;99.90
10431;DHT22;5262;59.958;17.726;2024-01-07T07:11:51;-17.40;99.90
10431;DHT22;5262;59.958;17.726;2024-01-07T07:14:17;-17.40;99.90
10431;DHT22;5262;59.958;17.726;2024-01-07T07:16:42;-17.40;99.90
10431;DHT22;5262;59.958;17.726;2024-01-07T07:19:08;-17.50;99.90
10431;DHT22;5262;59.958;17.726;2024-01-07T07:21:33;-17.50;99.90
10431;DHT22;5262;59.958;17.726;2024-01-07T07:23:59;-17.60;99.90
10431;DHT22;5262;59.958;17.726;2024-01-07T07:26:24;-17.50;99.90
10431;DHT22;5262;59.958;17.726;2024-01-07T07:28:50;-17.60;99.90
10431;DHT22;5262;59.958;17.726;2024-01-07T07:31:16;-17.60;99.90
10431;DHT22;5262;59.958;17.726;2024-01-07T07:33:41;-17.60;99.90
10431;DHT22;5262;59.958;17.726;2024-01-07T07:36:07;-17.60;99.90
10431;DHT22;5262;59.958;17.726;2024-01-07T07:38:33;-17.70;99.90
10431;DHT22;5262;59.958;17.726;2024-01-07T07:40:59;-17.70;99.90
10431;DHT22;5262;59.958;17.726;2024-01-07T07:43:25;-17.70;99.90
10431;DHT22;5262;59.958;17.726;2024-01-07T07:45:51;-17.70;99.90
10431;DHT22;5262;59.958;17.726;2024-01-07T07:48:18;-17.70;99.90
10431;DHT22;5262;59.958;17.726;2024-01-07T07:50:44;-17.70;99.90
10431;DHT22;5262;59.958;17.726;2024-01-07T07:53:10;-17.70;99.90
10431;DHT22;5262;59.958;17.726;2024-01-07T07:55:35;-17.70;99.90
10431;DHT22;5262;59.958;17.726;2024-01-07T07:58:01;-17.70;99.90
10431;DHT22;5262;59.958;17.726;2024-01-07T08:00:27;-17.70;99.90
10431;DHT22;5262;59.958;17.726;2024-01-07T08:02:53;-17.70;99.90
10431;DHT22;5262;59.958;17.726;2024-01-07T08:05:18;-17.70;99.90
10431;DHT22;5262;59.958;17.726;2024-01-07T08:07:44;-17.70;99.90
10431;DHT22;5262;59.958;17.726;2024-01-07T08:10:10;-17.70;99.90
10431;DHT22;5262;59.958;17.726;2024-01-07T08:12:37;-17.70;99.90
10431;DHT22;5262;59.958;17.726;2024-01-07T08:15:02;-17.60;99.90
10431;DHT22;5262;59.958;17.726;2024-01-07T08:17:29;-17.60;99.90
10431;DHT22;5262;59.958;17.726;2024-01-07T08:19:54;-17.60;99.90
10431;DHT22;5262;59.958;17.726;2024-01-07T08:22:20;-17.60;99.90
10431;DHT22;5262;59.958;17.726;2024-01-07T08:24:45;-17.60;99.90
10431;DHT22;5262;59.958;17.726;2024-01-07T08:27:11;-17.60;99.90
10431;DHT22;5262;59.958;17.726;2024-01-07T08:29:37;-17.60;99.90
10431;DHT22;5262;59.958;17.726;2024-01-07T08:32:02;-17.60;99.90
10431;DHT22;5262;59.958;17.726;2024-01-07T08:34:28;-17.60;99.90
10431;DHT22;5262;59.958;17.726;2024-01-07T08:36:54;-17.60;99.90
10431;DHT22;5262;59.958;17.726;2024-01-07T08:39:20;-17.60;99.90
10431;DHT22;5262;59.958;17.726;2024-01-07T08:41:45;-17.60;99.90
10431;DHT22;5262;59.958;17.726;2024-01-07T08:44:11;-17.60;99.90
10431;DHT22;5262;59.958;17.726;2024-01-07T08:46:37;-17.60;99.90
10431;DHT22;5262;59.958;17.726;2024-01-07T08:49:03;-17.60;99.90
10431;DHT22;5262;59.958;17.726;2024-01-07T08:51:28;-17.60;99.90
10431;DHT22;5262;59.958;17.726;2024-01-07T08:53:57;-17.60;99.90
10431;DHT22;5262;59.958;17.726;2024-01-07T08:56:23;-17.60;99.90
10431;DHT22;5262;59.958;17.726;2024-01-07T08:58:49;-17.60;99.90
10431;DHT22;5262;59.958;17.726;2024-01-07T09:01:15;-17.60;99.90
10431;DHT22;5262;59.958;17.726;2024-01-07T09:03:41;-17.60;99.90
10431;DHT22;5262;59.958;17.726;2024-01-07T09:06:07;-17.60;99.90
10431;DHT22;5262;59.958;17.726;2024-01-07T09:08:33;-17.50;99.90
10431;DHT22;5262;59.958;17.726;2024-01-07T09:11:00;-17.50;99.90
10431;DHT22;5262;59.958;17.726;2024-01-07T09:13:27;-17.50;99.90
10431;DHT22;5262;59.958;17.726;2024-01-07T09:15:53;-17.50;99.90
10431;DHT22;5262;59.958;17.726;2024-01-07T09:18:18;-17.40;99.90
10431;DHT22;5262;59.958;17.726;2024-01-07T09:20:44;-17.40;99.90
10431;DHT22;5262;59.958;17.726;2024-01-07T09:23:10;-17.40;99.90
10431;DHT22;5262;59.958;17.726;2024-01-07T09:25:35;-17.30;99.90
10431;DHT22;5262;59.958;17.726;2024-01-07T09:28:01;-17.20;99.90
10431;DHT22;5262;59.958;17.726;2024-01-07T09:30:27;-17.20;99.90
10431;DHT22;5262;59.958;17.726;2024-01-07T09:32:52;-17.20;99.90
10431;DHT22;5262;59.958;17.726;2024-01-07T09:35:18;-17.10;99.90
10431;DHT22;5262;59.958;17.726;2024-01-07T09:37:43;-17.00;99.90
10431;DHT22;5262;59.958;17.726;2024-01-07T09:40:10;-17.00;99.90
10431;DHT22;5262;59.958;17.726;2024-01-07T09:42:35;-17.00;99.90
10431;DHT22;5262;59.958;17.726;2024-01-07T09:45:05;-17.00;99.90
10431;DHT22;5262;59.958;17.726;2024-01-07T09:47:31;-17.00;99.90
10431;DHT22;5262;59.958;17.726;2024-01-07T09:49:57;-16.90;99.90
10431;DHT22;5262;59.958;17.726;2024-01-07T09:52:23;-16.90;99.90
10431;DHT22;5262;59.958;17.726;2024-01-07T09:54:53;-16.90;99.90
10431;DHT22;5262;59.958;17.726;2024-01-07T09:57:21;-16.90;99.90
10431;DHT22;5262;59.958;17.726;2024-01-07T09:59:47;-16.80;99.90
10431;DHT22;5262;59.958;17.726;2024-01-07T10:02:12;-16.70;99.90
10431;DHT22;5262;59.958;17.726;2024-01-07T10:04:39;-16.70;99.90
10431;DHT22;5262;59.958;17.726;2024-01-07T10:07:05;-16.60;99.90
10431;DHT22;5262;59.958;17.726;2024-01-07T10:09:33;-16.50;99.90
10431;DHT22;5262;59.958;17.726;2024-01-07T10:11:59;-16.40;99.90
10431;DHT22;5262;59.958;17.726;2024-01-07T10:14:25;-16.40;99.90
10431;DHT22;5262;59.958;17.726;2024-01-07T10:16:54;-16.30;99.90
10431;DHT22;5262;59.958;17.726;2024-01-07T10:19:24;-16.30;99.90
10431;DHT22;5262;59.958;17.726;2024-01-07T10:22:03;-16.30;99.90
10431;DHT22;5262;59.958;17.726;2024-01-07T10:24:36;-16.30;99.90
10431;DHT22;5262;59.958;17.726;2024-01-07T10:27:05;-16.30;99.90
10431;DHT22;5262;59.958;17.726;2024-01-07T10:29:32;-16.20;99.90
10431;DHT22;5262;59.958;17.726;2024-01-07T10:32:02;-16.20;99.90
10431;DHT22;5262;59.958;17.726;2024-01-07T10:34:35;-16.10;99.90
10431;DHT22;5262;59.958;17.726;2024-01-07T10:37:03;-16.00;99.90
10431;DHT22;5262;59.958;17.726;2024-01-07T10:39:29;-16.00;99.90
10431;DHT22;5262;59.958;17.726;2024-01-07T10:41:56;-15.90;99.90
10431;DHT22;5262;59.958;17.726;2024-01-07T10:44:25;-15.80;99.90
10431;DHT22;5262;59.958;17.726;2024-01-07T10:46:53;-15.70;99.90
10431;DHT22;5262;59.958;17.726;2024-01-07T10:49:20;-15.60;99.90
10431;DHT22;5262;59.958;17.726;2024-01-07T10:51:56;-15.60;99.90
10431;DHT22;5262;59.958;17.726;2024-01-07T10:54:28;-15.50;99.90
10431;DHT22;5262;59.958;17.726;2024-01-07T10:56:58;-15.20;99.90
10431;DHT22;5262;59.958;17.726;2024-01-07T10:59:26;-15.10;99.90
10431;DHT22;5262;59.958;17.726;2024-01-07T11:01:53;-15.10;99.90
10431;DHT22;5262;59.958;17.726;2024-01-07T11:10:13;-15.00;99.90
10431;DHT22;5262;59.958;17.726;2024-01-07T11:12:40;-14.60;99.90
10431;DHT22;5262;59.958;17.726;2024-01-07T11:15:05;-14.20;99.90
10431;DHT22;5262;59.958;17.726;2024-01-07T11:20:21;-13.80;99.90
10431;DHT22;5262;59.958;17.726;2024-01-07T11:22:48;-13.80;99.90
10431;DHT22;5262;59.958;17.726;2024-01-07T11:25:33;-14.00;99.90
10431;DHT22;5262;59.958;17.726;2024-01-07T11:28:01;-14.20;99.90
10431;DHT22;5262;59.958;17.726;2024-01-07T11:30:26;-14.30;99.90
10431;DHT22;5262;59.958;17.726;2024-01-07T11:33:04;-14.50;99.90
10431;DHT22;5262;59.958;17.726;2024-01-07T11:38:20;-14.50;99.90
10431;DHT22;5262;59.958;17.726;2024-01-07T11:40:47;-14.60;99.90
10431;DHT22;5262;59.958;17.726;2024-01-07T11:43:14;-14.70;99.90
10431;DHT22;5262;59.958;17.726;2024-01-07T11:45:40;-14.80;99.90
10431;DHT22;5262;59.958;17.726;2024-01-07T11:48:05;-14.80;99.90
10431;DHT22;5262;59.958;17.726;2024-01-07T11:50:31;-14.80;99.90
10431;DHT22;5262;59.958;17.726;2024-01-07T11:52:57;-14.80;99.90
10431;DHT22;5262;59.958;17.726;2024-01-07T11:55:23;-14.90;99.90
10431;DHT22;5262;59.958;17.726;2024-01-07T11:57:50;-15.00;99.90
10431;DHT22;5262;59.958;17.726;2024-01-07T12:00:16;-15.10;99.90
10431;DHT22;5262;59.958;17.726;2024-01-07T12:02:42;-15.10;99.90
10431;DHT22;5262;59.958;17.726;2024-01-07T12:05:07;-15.10;99.90
10431;DHT22;5262;59.958;17.726;2024-01-07T12:07:33;-15.20;99.90
10431;DHT22;5262;59.958;17.726;2024-01-07T12:10:02;-15.20;99.90
10431;DHT22;5262;59.958;17.726;2024-01-07T12:12:28;-15.20;99.90
10431;DHT22;5262;59.958;17.726;2024-01-07T12:14:55;-15.10;99.90
10431;DHT22;5262;59.958;17.726;2024-01-07T12:17:22;-15.10;99.90
10431;DHT22;5262;59.958;17.726;2024-01-07T12:19:48;-15.00;99.90
10431;DHT22;5262;59.958;17.726;2024-01-07T12:22:17;-15.00;99.90
10431;DHT22;5262;59.958;17.726;2024-01-07T12:24:43;-15.00;99.90
10431;DHT22;5262;59.958;17.726;2024-01-07T12:27:09;-14.90;99.90
10431;DHT22;5262;59.958;17.726;2024-01-07T12:29:35;-14.90;99.90
10431;DHT22;5262;59.958;17.726;2024-01-07T12:32:00;-14.90;99.90
10431;DHT22;5262;59.958;17.726;2024-01-07T12:34:28;-14.90;99.90
10431;DHT22;5262;59.958;17.726;2024-01-07T12:36:54;-14.90;99.90
10431;DHT22;5262;59.958;17.726;2024-01-07T12:39:21;-14.90;99.90
10431;DHT22;5262;59.958;17.726;2024-01-07T12:41:46;-15.00;99.90
10431;DHT22;5262;59.958;17.726;2024-01-07T12:44:12;-15.00;99.90
10431;DHT22;5262;59.958;17.726;2024-01-07T12:46:38;-15.00;99.90
10431;DHT22;5262;59.958;17.726;2024-01-07T12:49:04;-15.00;99.90
10431;DHT22;5262;59.958;17.726;2024-01-07T12:51:29;-15.10;99.90
10431;DHT22;5262;59.958;17.726;2024-01-07T12:53:55;-15.10;99.90
10431;DHT22;5262;59.958;17.726;2024-01-07T12:56:22;-15.10;99.90
10431;DHT22;5262;59.958;17.726;2024-01-07T12:58:47;-15.10;99.90
10431;DHT22;5262;59.958;17.726;2024-01-07T13:01:13;-15.20;99.90
10431;DHT22;5262;59.958;17.726;2024-01-07T13:03:39;-15.20;99.90
10431;DHT22;5262;59.958;17.726;2024-01-07T13:06:05;-15.20;99.90
10431;DHT22;5262;59.958;17.726;2024-01-07T13:08:32;-15.30;99.90
10431;DHT22;5262;59.958;17.726;2024-01-07T13:10:58;-15.30;99.90
10431;DHT22;5262;59.958;17.726;2024-01-07T13:13:25;-15.40;99.90
10431;DHT22;5262;59.958;17.726;2024-01-07T13:15:51;-15.40;99.90
10431;DHT22;5262;59.958;17.726;2024-01-07T13:18:17;-15.40;99.90
10431;DHT22;5262;59.958;17.726;2024-01-07T13:20:43;-15.40;99.90
10431;DHT22;5262;59.958;17.726;2024-01-07T13:23:09;-15.40;99.90
10431;DHT22;5262;59.958;17.726;2024-01-07T13:25:34;-15.40;99.90
10431;DHT22;5262;59.958;17.726;2024-01-07T13:28:00;-15.40;99.90
10431;DHT22;5262;59.958;17.726;2024-01-07T13:30:26;-15.40;99.90
10431;DHT22;5262;59.958;17.726;2024-01-07T13:32:51;-15.40;99.90
10431;DHT22;5262;59.958;17.726;2024-01-07T13:35:22;-15.40;99.90
10431;DHT22;5262;59.958;17.726;2024-01-07T13:37:47;-15.40;99.90
10431;DHT22;5262;59.958;17.726;2024-01-07T13:40:13;-15.40;99.90
10431;DHT22;5262;59.958;17.726;2024-01-07T13:42:40;-15.30;99.90
10431;DHT22;5262;59.958;17.726;2024-01-07T13:45:06;-15.40;99.90
10431;DHT22;5262;59.958;17.726;2024-01-07T13:47:31;-15.30;99.90
10431;DHT22;5262;59.958;17.726;2024-01-07T13:49:57;-15.40;99.90
10431;DHT22;5262;59.958;17.726;2024-01-07T13:52:23;-15.40;99.90
10431;DHT22;5262;59.958;17.726;2024-01-07T13:54:48;-15.40;99.90
10431;DHT22;5262;59.958;17.726;2024-01-07T13:57:14;-15.40;99.90
10431;DHT22;5262;59.958;17.726;2024-01-07T13:59:39;-15.40;99.90
10431;DHT22;5262;59.958;17.726;2024-01-07T14:02:08;-15.50;99.90
10431;DHT22;5262;59.958;17.726;2024-01-07T14:04:35;-15.50;99.90
10431;DHT22;5262;59.958;17.726;2024-01-07T14:07:00;-15.50;99.90
10431;DHT22;5262;59.958;17.726;2024-01-07T14:09:26;-15.50;99.90
10431;DHT22;5262;59.958;17.726;2024-01-07T14:11:52;-15.50;99.90
10431;DHT22;5262;59.958;17.726;2024-01-07T14:14:18;-15.60;99.90
10431;DHT22;5262;59.958;17.726;2024-01-07T14:16:46;-15.60;99.90
10431;DHT22;5262;59.958;17.726;2024-01-07T14:19:12;-15.70;99.90
10431;DHT22;5262;59.958;17.726;2024-01-07T14:21:40;-15.70;99.90
10431;DHT22;5262;59.958;17.726;2024-01-07T14:24:05;-15.70;99.90
10431;DHT22;5262;59.958;17.726;2024-01-07T14:26:31;-15.70;99.90
10431;DHT22;5262;59.958;17.726;2024-01-07T14:28:57;-15.70;99.90
10431;DHT22;5262;59.958;17.726;2024-01-07T14:31:22;-15.80;99.90
10431;DHT22;5262;59.958;17.726;2024-01-07T14:33:48;-15.70;99.90
10431;DHT22;5262;59.958;17.726;2024-01-07T14:36:15;-15.80;99.90
10431;DHT22;5262;59.958;17.726;2024-01-07T14:38:47;-15.80;99.90
10431;DHT22;5262;59.958;17.726;2024-01-07T14:41:16;-15.80;99.90
10431;DHT22;5262;59.958;17.726;2024-01-07T14:43:43;-15.80;99.90
10431;DHT22;5262;59.958;17.726;2024-01-07T14:46:09;-15.80;99.90
10431;DHT22;5262;59.958;17.726;2024-01-07T14:48:35;-15.80;99.90
10431;DHT22;5262;59.958;17.726;2024-01-07T14:51:02;-15.80;99.90
10431;DHT22;5262;59.958;17.726;2024-01-07T14:53:27;-15.80;99.90
10431;DHT22;5262;59.958;17.726;2024-01-07T14:55:56;-15.80;99.90
10431;DHT22;5262;59.958;17.726;2024-01-07T14:58:23;-15.80;99.90
10431;DHT22;5262;59.958;17.726;2024-01-07T15:00:50;-15.80;99.90
10431;DHT22;5262;59.958;17.726;2024-01-07T15:03:15;-15.80;99.90
10431;DHT22;5262;59.958;17.726;2024-01-07T15:05:42;-15.80;99.90
10431;DHT22;5262;59.958;17.726;2024-01-07T15:08:08;-15.80;99.90
10431;DHT22;5262;59.958;17.726;2024-01-07T15:10:34;-15.80;99.90
10431;DHT22;5262;59.958;17.726;2024-01-07T15:12:59;-15.80;99.90
10431;DHT22;5262;59.958;17.726;2024-01-07T15:15:25;-15.70;99.90
10431;DHT22;5262;59.958;17.726;2024-01-07T15:17:56;-15.80;99.90
10431;DHT22;5262;59.958;17.726;2024-01-07T15:20:22;-15.70;99.90